sensor_id;sensor_type;location;lat;lon;timestamp;P1;durP1;ratioP1;P2;durP2;ratioP2
15194;SDS011;7698;42.478;23.756;2023-10-31T00:00:47;16.80;;;15.30;;
15194;SDS011;7698;42.478;23.756;2023-10-31T00:03:13;12.98;;;11.77;;
15194;SDS011;7698;42.478;23.756;2023-10-31T00:05:41;16.77;;;15.35;;
15194;SDS011;7698;42.478;23.756;2023-10-31T00:08:08;15.70;;;14.50;;
15194;SDS011;7698;42.478;23.756;2023-10-31T00:10:35;14.80;;;13.70;;
15194;SDS011;7698;42.478;23.756;2023-10-31T00:13:01;14.70;;;13.45;;
15194;SDS011;7698;42.478;23.756;2023-10-31T00:15:28;14.32;;;13.18;;
15194;SDS011;7698;42.478;23.756;2023-10-31T00:17:55;11.38;;;10.48;;
15194;SDS011;7698;42.478;23.756;2023-10-31T00:20:22;11.30;;;10.40;;
15194;SDS011;7698;42.478;23.756;2023-10-31T00:22:50;9.57;;;8.77;;
15194;SDS011;7698;42.478;23.756;2023-10-31T00:25:16;8.80;;;8.00;;
15194;SDS011;7698;42.478;23.756;2023-10-31T00:27:43;10.07;;;9.20;;
15194;SDS011;7698;42.478;23.756;2023-10-31T00:30:10;11.30;;;10.20;;
15194;SDS011;7698;42.478;23.756;2023-10-31T00:32:36;11.20;;;10.20;;
15194;SDS011;7698;42.478;23.756;2023-10-31T00:35:03;8.82;;;8.13;;
15194;SDS011;7698;42.478;23.756;2023-10-31T00:37:30;9.57;;;8.75;;
15194;SDS011;7698;42.478;23.756;2023-10-31T00:39:57;9.48;;;8.57;;
15194;SDS011;7698;42.478;23.756;2023-10-31T00:42:24;10.95;;;10.05;;
15194;SDS011;7698;42.478;23.756;2023-10-31T00:44:50;10.10;;;9.23;;
15194;SDS011;7698;42.478;23.756;2023-10-31T00:47:17;9.70;;;8.80;;
15194;SDS011;7698;42.478;23.756;2023-10-31T00:49:44;7.53;;;6.82;;
15194;SDS011;7698;42.478;23.756;2023-10-31T00:52:10;9.10;;;8.20;;
15194;SDS011;7698;42.478;23.756;2023-10-31T00:54:37;9.85;;;8.98;;
15194;SDS011;7698;42.478;23.756;2023-10-31T00:57:04;11.05;;;9.90;;
15194;SDS011;7698;42.478;23.756;2023-10-31T00:59:31;7.93;;;7.32;;
15194;SDS011;7698;42.478;23.756;2023-10-31T01:01:57;8.85;;;8.00;;
15194;SDS011;7698;42.478;23.756;2023-10-31T01:04:24;7.97;;;7.28;;
15194;SDS011;7698;42.478;23.756;2023-10-31T01:06:51;7.55;;;6.95;;
15194;SDS011;7698;42.478;23.756;2023-10-31T01:09:17;6.63;;;6.10;;
15194;SDS011;7698;42.478;23.756;2023-10-31T01:11:44;7.75;;;7.05;;
15194;SDS011;7698;42.478;23.756;2023-10-31T01:14:12;7.75;;;7.05;;
15194;SDS011;7698;42.478;23.756;2023-10-31T01:16:39;6.80;;;6.20;;
15194;SDS011;7698;42.478;23.756;2023-10-31T01:19:05;7.35;;;6.50;;
15194;SDS011;7698;42.478;23.756;2023-10-31T01:21:32;7.78;;;7.07;;
15194;SDS011;7698;42.478;23.756;2023-10-31T01:23:58;8.82;;;7.93;;
15194;SDS011;7698;42.478;23.756;2023-10-31T01:26:25;8.85;;;6.90;;
15194;SDS011;7698;42.478;23.756;2023-10-31T01:28:52;5.85;;;5.32;;
15194;SDS011;7698;42.478;23.756;2023-10-31T01:31:19;4.90;;;4.50;;
15194;SDS011;7698;42.478;23.756;2023-10-31T01:33:46;5.18;;;4.68;;
15194;SDS011;7698;42.478;23.756;2023-10-31T01:36:13;4.53;;;4.22;;
15194;SDS011;7698;42.478;23.756;2023-10-31T01:38:39;4.43;;;4.03;;
15194;SDS011;7698;42.478;23.756;2023-10-31T01:41:06;3.53;;;3.22;;
15194;SDS011;7698;42.478;23.756;2023-10-31T01:43:33;3.40;;;3.10;;
15194;SDS011;7698;42.478;23.756;2023-10-31T01:46:00;2.75;;;2.55;;
15194;SDS011;7698;42.478;23.756;2023-10-31T01:48:30;3.50;;;3.20;;
15194;SDS011;7698;42.478;23.756;2023-10-31T01:50:57;2.63;;;2.42;;
15194;SDS011;7698;42.478;23.756;2023-10-31T01:53:24;3.53;;;2.80;;
15194;SDS011;7698;42.478;23.756;2023-10-31T01:55:51;3.22;;;2.83;;
15194;SDS011;7698;42.478;23.756;2023-10-31T01:58:18;3.35;;;3.13;;
15194;SDS011;7698;42.478;23.756;2023-10-31T02:00:46;3.40;;;3.10;;
15194;SDS011;7698;42.478;23.756;2023-10-31T02:03:13;3.28;;;3.08;;
15194;SDS011;7698;42.478;23.756;2023-10-31T02:05:41;5.20;;;4.28;;
15194;SDS011;7698;42.478;23.756;2023-10-31T02:08:08;4.88;;;4.40;;
15194;SDS011;7698;42.478;23.756;2023-10-31T02:10:34;5.57;;;5.07;;
15194;SDS011;7698;42.478;23.756;2023-10-31T02:13:09;7.28;;;5.82;;
15194;SDS011;7698;42.478;23.756;2023-10-31T02:15:36;7.35;;;6.85;;
15194;SDS011;7698;42.478;23.756;2023-10-31T02:18:02;7.38;;;6.78;;
15194;SDS011;7698;42.478;23.756;2023-10-31T02:20:29;5.07;;;4.78;;
15194;SDS011;7698;42.478;23.756;2023-10-31T02:22:57;4.97;;;4.47;;
15194;SDS011;7698;42.478;23.756;2023-10-31T02:25:23;4.30;;;4.00;;
15194;SDS011;7698;42.478;23.756;2023-10-31T02:27:50;4.80;;;4.35;;
15194;SDS011;7698;42.478;23.756;2023-10-31T02:30:16;5.10;;;4.60;;
15194;SDS011;7698;42.478;23.756;2023-10-31T02:32:43;5.53;;;5.03;;
15194;SDS011;7698;42.478;23.756;2023-10-31T02:35:10;5.38;;;4.50;;
15194;SDS011;7698;42.478;23.756;2023-10-31T02:37:36;3.58;;;3.28;;
15194;SDS011;7698;42.478;23.756;2023-10-31T02:40:05;5.15;;;3.63;;
15194;SDS011;7698;42.478;23.756;2023-10-31T02:42:32;4.38;;;3.42;;
15194;SDS011;7698;42.478;23.756;2023-10-31T02:44:58;4.60;;;3.88;;
15194;SDS011;7698;42.478;23.756;2023-10-31T02:47:25;4.97;;;4.28;;
15194;SDS011;7698;42.478;23.756;2023-10-31T02:49:51;4.88;;;4.30;;
15194;SDS011;7698;42.478;23.756;2023-10-31T02:52:18;4.45;;;4.05;;
15194;SDS011;7698;42.478;23.756;2023-10-31T02:54:44;5.15;;;4.75;;
15194;SDS011;7698;42.478;23.756;2023-10-31T02:57:12;6.60;;;6.00;;
15194;SDS011;7698;42.478;23.756;2023-10-31T02:59:39;6.45;;;5.95;;
15194;SDS011;7698;42.478;23.756;2023-10-31T03:02:05;8.45;;;7.75;;
15194;SDS011;7698;42.478;23.756;2023-10-31T03:04:32;7.57;;;6.97;;
15194;SDS011;7698;42.478;23.756;2023-10-31T03:06:58;11.35;;;10.32;;
15194;SDS011;7698;42.478;23.756;2023-10-31T03:09:25;8.80;;;8.05;;
15194;SDS011;7698;42.478;23.756;2023-10-31T03:11:52;9.00;;;8.10;;
15194;SDS011;7698;42.478;23.756;2023-10-31T03:14:20;10.10;;;9.23;;
15194;SDS011;7698;42.478;23.756;2023-10-31T03:16:47;10.88;;;9.95;;
15194;SDS011;7698;42.478;23.756;2023-10-31T03:19:13;11.10;;;10.18;;
15194;SDS011;7698;42.478;23.756;2023-10-31T03:21:40;11.77;;;10.63;;
15194;SDS011;7698;42.478;23.756;2023-10-31T03:24:06;10.65;;;9.75;;
15194;SDS011;7698;42.478;23.756;2023-10-31T03:26:33;9.82;;;8.95;;
15194;SDS011;7698;42.478;23.756;2023-10-31T03:28:59;8.80;;;8.00;;
15194;SDS011;7698;42.478;23.756;2023-10-31T03:31:27;9.55;;;8.50;;
15194;SDS011;7698;42.478;23.756;2023-10-31T03:33:53;10.38;;;9.35;;
15194;SDS011;7698;42.478;23.756;2023-10-31T03:36:20;10.93;;;9.82;;
15194;SDS011;7698;42.478;23.756;2023-10-31T03:38:47;9.80;;;8.90;;
15194;SDS011;7698;42.478;23.756;2023-10-31T03:41:13;7.30;;;6.70;;
15194;SDS011;7698;42.478;23.756;2023-10-31T03:43:40;5.32;;;4.93;;
15194;SDS011;7698;42.478;23.756;2023-10-31T03:46:07;7.72;;;7.00;;
15194;SDS011;7698;42.478;23.756;2023-10-31T03:48:34;10.20;;;8.48;;
15194;SDS011;7698;42.478;23.756;2023-10-31T03:51:01;10.48;;;8.90;;
15194;SDS011;7698;42.478;23.756;2023-10-31T03:53:27;7.75;;;6.97;;
15194;SDS011;7698;42.478;23.756;2023-10-31T03:55:54;9.90;;;8.85;;
15194;SDS011;7698;42.478;23.756;2023-10-31T03:58:20;7.70;;;6.60;;
15194;SDS011;7698;42.478;23.756;2023-10-31T04:00:48;10.13;;;7.57;;
15194;SDS011;7698;42.478;23.756;2023-10-31T04:03:15;7.55;;;6.82;;
15194;SDS011;7698;42.478;23.756;2023-10-31T04:05:43;7.65;;;6.85;;
15194;SDS011;7698;42.478;23.756;2023-10-31T04:08:10;7.63;;;5.35;;
15194;SDS011;7698;42.478;23.756;2023-10-31T04:10:36;5.80;;;5.05;;
15194;SDS011;7698;42.478;23.756;2023-10-31T04:13:03;4.93;;;4.50;;
15194;SDS011;7698;42.478;23.756;2023-10-31T04:15:30;4.80;;;4.30;;
15194;SDS011;7698;42.478;23.756;2023-10-31T04:17:56;4.35;;;3.95;;
15194;SDS011;7698;42.478;23.756;2023-10-31T04:20:23;4.25;;;3.83;;
15194;SDS011;7698;42.478;23.756;2023-10-31T04:22:51;5.10;;;4.45;;
15194;SDS011;7698;42.478;23.756;2023-10-31T04:25:17;5.18;;;4.43;;
15194;SDS011;7698;42.478;23.756;2023-10-31T04:27:44;4.00;;;3.40;;
15194;SDS011;7698;42.478;23.756;2023-10-31T04:30:11;3.90;;;3.53;;
15194;SDS011;7698;42.478;23.756;2023-10-31T04:32:37;4.15;;;3.85;;
15194;SDS011;7698;42.478;23.756;2023-10-31T04:35:04;4.25;;;3.50;;
15194;SDS011;7698;42.478;23.756;2023-10-31T04:37:31;3.50;;;3.20;;
15194;SDS011;7698;42.478;23.756;2023-10-31T04:39:59;3.03;;;2.83;;
15194;SDS011;7698;42.478;23.756;2023-10-31T04:42:25;4.25;;;3.70;;
15194;SDS011;7698;42.478;23.756;2023-10-31T04:44:52;3.60;;;3.30;;
15194;SDS011;7698;42.478;23.756;2023-10-31T04:47:18;4.35;;;3.95;;
15194;SDS011;7698;42.478;23.756;2023-10-31T04:49:45;5.03;;;4.57;;
15194;SDS011;7698;42.478;23.756;2023-10-31T04:52:11;4.07;;;3.78;;
15194;SDS011;7698;42.478;23.756;2023-10-31T04:54:38;3.53;;;3.22;;
15194;SDS011;7698;42.478;23.756;2023-10-31T04:57:07;3.60;;;3.30;;
15194;SDS011;7698;42.478;23.756;2023-10-31T04:59:34;4.93;;;4.05;;
15194;SDS011;7698;42.478;23.756;2023-10-31T05:02:00;4.85;;;4.10;;
15194;SDS011;7698;42.478;23.756;2023-10-31T05:04:27;4.50;;;4.10;;
15194;SDS011;7698;42.478;23.756;2023-10-31T05:06:54;5.72;;;4.53;;
15194;SDS011;7698;42.478;23.756;2023-10-31T05:09:21;6.10;;;5.47;;
15194;SDS011;7698;42.478;23.756;2023-10-31T05:11:48;6.88;;;5.30;;
15194;SDS011;7698;42.478;23.756;2023-10-31T05:14:16;5.72;;;5.22;;
15194;SDS011;7698;42.478;23.756;2023-10-31T05:16:43;4.63;;;3.80;;
15194;SDS011;7698;42.478;23.756;2023-10-31T05:19:09;4.95;;;4.10;;
15194;SDS011;7698;42.478;23.756;2023-10-31T05:21:36;5.20;;;4.72;;
15194;SDS011;7698;42.478;23.756;2023-10-31T05:24:03;4.97;;;4.47;;
15194;SDS011;7698;42.478;23.756;2023-10-31T05:26:29;4.60;;;4.20;;
15194;SDS011;7698;42.478;23.756;2023-10-31T05:28:56;4.07;;;3.78;;
15194;SDS011;7698;42.478;23.756;2023-10-31T05:31:24;3.55;;;3.33;;
15194;SDS011;7698;42.478;23.756;2023-10-31T05:33:51;2.85;;;2.63;;
15194;SDS011;7698;42.478;23.756;2023-10-31T05:36:18;3.88;;;3.55;;
15194;SDS011;7698;42.478;23.756;2023-10-31T05:38:45;4.57;;;3.70;;
15194;SDS011;7698;42.478;23.756;2023-10-31T05:41:12;5.32;;;4.60;;
15194;SDS011;7698;42.478;23.756;2023-10-31T05:43:39;5.05;;;4.15;;
15194;SDS011;7698;42.478;23.756;2023-10-31T05:46:05;2.90;;;2.70;;
15194;SDS011;7698;42.478;23.756;2023-10-31T05:48:36;4.13;;;3.30;;
15194;SDS011;7698;42.478;23.756;2023-10-31T05:51:03;3.28;;;2.80;;
15194;SDS011;7698;42.478;23.756;2023-10-31T05:53:29;3.35;;;3.05;;
15194;SDS011;7698;42.478;23.756;2023-10-31T05:55:57;2.83;;;2.53;;
15194;SDS011;7698;42.478;23.756;2023-10-31T05:58:24;5.05;;;2.78;;
15194;SDS011;7698;42.478;23.756;2023-10-31T06:00:50;3.38;;;3.00;;
15194;SDS011;7698;42.478;23.756;2023-10-31T06:03:17;9.25;;;7.82;;
15194;SDS011;7698;42.478;23.756;2023-10-31T06:05:45;9.45;;;8.48;;
15194;SDS011;7698;42.478;23.756;2023-10-31T06:08:11;3.85;;;3.55;;
15194;SDS011;7698;42.478;23.756;2023-10-31T06:10:38;3.80;;;2.83;;
15194;SDS011;7698;42.478;23.756;2023-10-31T06:13:05;3.53;;;3.22;;
15194;SDS011;7698;42.478;23.756;2023-10-31T06:15:31;3.78;;;3.42;;
15194;SDS011;7698;42.478;23.756;2023-10-31T06:17:58;4.20;;;3.80;;
15194;SDS011;7698;42.478;23.756;2023-10-31T06:20:25;4.95;;;4.55;;
15194;SDS011;7698;42.478;23.756;2023-10-31T06:22:53;4.07;;;3.67;;
15194;SDS011;7698;42.478;23.756;2023-10-31T06:25:20;4.20;;;3.00;;
15194;SDS011;7698;42.478;23.756;2023-10-31T06:27:46;4.68;;;4.03;;
15194;SDS011;7698;42.478;23.756;2023-10-31T06:30:13;3.30;;;3.03;;
15194;SDS011;7698;42.478;23.756;2023-10-31T06:32:39;3.28;;;2.28;;
15194;SDS011;7698;42.478;23.756;2023-10-31T06:35:06;3.80;;;2.67;;
15194;SDS011;7698;42.478;23.756;2023-10-31T06:37:33;2.85;;;2.65;;
15194;SDS011;7698;42.478;23.756;2023-10-31T06:40:02;3.17;;;2.83;;
15194;SDS011;7698;42.478;23.756;2023-10-31T06:42:29;2.97;;;2.72;;
15194;SDS011;7698;42.478;23.756;2023-10-31T06:44:56;2.95;;;2.50;;
15194;SDS011;7698;42.478;23.756;2023-10-31T06:47:23;2.90;;;2.47;;
15194;SDS011;7698;42.478;23.756;2023-10-31T06:49:49;3.47;;;2.92;;
15194;SDS011;7698;42.478;23.756;2023-10-31T06:52:16;2.85;;;2.50;;
15194;SDS011;7698;42.478;23.756;2023-10-31T06:54:42;3.08;;;2.45;;
15194;SDS011;7698;42.478;23.756;2023-10-31T06:57:10;4.85;;;2.92;;
15194;SDS011;7698;42.478;23.756;2023-10-31T06:59:37;2.97;;;2.53;;
15194;SDS011;7698;42.478;23.756;2023-10-31T07:02:03;3.10;;;2.78;;
15194;SDS011;7698;42.478;23.756;2023-10-31T07:04:30;4.57;;;3.30;;
15194;SDS011;7698;42.478;23.756;2023-10-31T07:06:56;4.32;;;3.92;;
15194;SDS011;7698;42.478;23.756;2023-10-31T07:09:23;4.28;;;3.88;;
15194;SDS011;7698;42.478;23.756;2023-10-31T07:11:50;3.97;;;3.45;;
15194;SDS011;7698;42.478;23.756;2023-10-31T07:14:18;3.92;;;3.53;;
15194;SDS011;7698;42.478;23.756;2023-10-31T07:16:44;4.05;;;3.67;;
15194;SDS011;7698;42.478;23.756;2023-10-31T07:19:11;6.15;;;4.22;;
15194;SDS011;7698;42.478;23.756;2023-10-31T07:21:37;4.57;;;4.05;;
15194;SDS011;7698;42.478;23.756;2023-10-31T07:24:04;3.45;;;3.15;;
15194;SDS011;7698;42.478;23.756;2023-10-31T07:26:33;4.13;;;3.53;;
15194;SDS011;7698;42.478;23.756;2023-10-31T07:29:00;6.43;;;3.42;;
15194;SDS011;7698;42.478;23.756;2023-10-31T07:31:28;3.35;;;2.97;;
15194;SDS011;7698;42.478;23.756;2023-10-31T07:33:55;4.53;;;3.03;;
15194;SDS011;7698;42.478;23.756;2023-10-31T07:36:22;3.83;;;3.13;;
15194;SDS011;7698;42.478;23.756;2023-10-31T07:38:48;3.55;;;3.08;;
15194;SDS011;7698;42.478;23.756;2023-10-31T07:41:15;3.50;;;2.70;;
15194;SDS011;7698;42.478;23.756;2023-10-31T07:43:41;3.50;;;2.90;;
15194;SDS011;7698;42.478;23.756;2023-10-31T07:46:08;2.97;;;2.67;;
15194;SDS011;7698;42.478;23.756;2023-10-31T07:48:36;3.05;;;2.80;;
15194;SDS011;7698;42.478;23.756;2023-10-31T07:51:03;3.08;;;2.13;;
15194;SDS011;7698;42.478;23.756;2023-10-31T07:53:30;3.10;;;2.80;;
15194;SDS011;7698;42.478;23.756;2023-10-31T07:55:56;3.63;;;3.17;;
15194;SDS011;7698;42.478;23.756;2023-10-31T07:58:23;4.85;;;2.85;;
15194;SDS011;7698;42.478;23.756;2023-10-31T08:00:49;3.55;;;3.15;;
15194;SDS011;7698;42.478;23.756;2023-10-31T08:03:16;3.03;;;2.75;;
15194;SDS011;7698;42.478;23.756;2023-10-31T08:05:44;3.25;;;2.70;;
15194;SDS011;7698;42.478;23.756;2023-10-31T08:08:10;3.00;;;2.80;;
15194;SDS011;7698;42.478;23.756;2023-10-31T08:10:37;2.70;;;2.50;;
15194;SDS011;7698;42.478;23.756;2023-10-31T08:13:04;2.88;;;2.63;;
15194;SDS011;7698;42.478;23.756;2023-10-31T08:15:30;4.55;;;2.88;;
15194;SDS011;7698;42.478;23.756;2023-10-31T08:17:57;4.38;;;3.20;;
15194;SDS011;7698;42.478;23.756;2023-10-31T08:20:23;3.85;;;2.78;;
15194;SDS011;7698;42.478;23.756;2023-10-31T08:22:51;3.00;;;2.53;;
15194;SDS011;7698;42.478;23.756;2023-10-31T08:25:18;2.72;;;2.38;;
15194;SDS011;7698;42.478;23.756;2023-10-31T08:27:45;3.38;;;2.40;;
15194;SDS011;7698;42.478;23.756;2023-10-31T08:30:11;3.40;;;2.58;;
15194;SDS011;7698;42.478;23.756;2023-10-31T08:32:38;2.38;;;2.17;;
15194;SDS011;7698;42.478;23.756;2023-10-31T08:35:05;2.42;;;2.15;;
15194;SDS011;7698;42.478;23.756;2023-10-31T08:37:31;3.40;;;2.13;;
15194;SDS011;7698;42.478;23.756;2023-10-31T08:39:59;2.85;;;2.38;;
15194;SDS011;7698;42.478;23.756;2023-10-31T08:42:28;4.03;;;3.00;;
15194;SDS011;7698;42.478;23.756;2023-10-31T08:44:55;3.40;;;2.40;;
15194;SDS011;7698;42.478;23.756;2023-10-31T08:47:22;4.38;;;2.88;;
15194;SDS011;7698;42.478;23.756;2023-10-31T08:49:48;3.40;;;2.42;;
15194;SDS011;7698;42.478;23.756;2023-10-31T08:52:15;5.07;;;3.03;;
15194;SDS011;7698;42.478;23.756;2023-10-31T08:54:43;2.90;;;2.33;;
15194;SDS011;7698;42.478;23.756;2023-10-31T08:57:10;2.95;;;2.60;;
15194;SDS011;7698;42.478;23.756;2023-10-31T08:59:37;3.10;;;2.80;;
15194;SDS011;7698;42.478;23.756;2023-10-31T09:02:04;3.08;;;2.67;;
15194;SDS011;7698;42.478;23.756;2023-10-31T09:04:31;2.70;;;2.35;;
15194;SDS011;7698;42.478;23.756;2023-10-31T09:06:58;3.08;;;2.78;;
15194;SDS011;7698;42.478;23.756;2023-10-31T09:09:24;4.07;;;3.33;;
15194;SDS011;7698;42.478;23.756;2023-10-31T09:11:51;3.58;;;2.60;;
15194;SDS011;7698;42.478;23.756;2023-10-31T09:14:19;3.67;;;2.90;;
15194;SDS011;7698;42.478;23.756;2023-10-31T09:16:45;3.30;;;3.00;;
15194;SDS011;7698;42.478;23.756;2023-10-31T09:19:12;3.80;;;2.90;;
15194;SDS011;7698;42.478;23.756;2023-10-31T09:21:38;3.65;;;2.55;;
15194;SDS011;7698;42.478;23.756;2023-10-31T09:24:05;4.05;;;3.05;;
15194;SDS011;7698;42.478;23.756;2023-10-31T09:26:32;3.95;;;3.42;;
15194;SDS011;7698;42.478;23.756;2023-10-31T09:28:58;4.40;;;3.47;;
15194;SDS011;7698;42.478;23.756;2023-10-31T09:31:26;3.97;;;2.80;;
15194;SDS011;7698;42.478;23.756;2023-10-31T09:33:53;5.53;;;3.40;;
15194;SDS011;7698;42.478;23.756;2023-10-31T09:36:19;5.03;;;3.30;;
15194;SDS011;7698;42.478;23.756;2023-10-31T09:38:46;3.40;;;3.05;;
15194;SDS011;7698;42.478;23.756;2023-10-31T09:41:12;5.80;;;3.60;;
15194;SDS011;7698;42.478;23.756;2023-10-31T09:43:39;5.05;;;3.78;;
15194;SDS011;7698;42.478;23.756;2023-10-31T09:46:06;4.00;;;3.30;;
15194;SDS011;7698;42.478;23.756;2023-10-31T09:48:36;3.45;;;2.97;;
15194;SDS011;7698;42.478;23.756;2023-10-31T09:51:04;5.72;;;3.17;;
15194;SDS011;7698;42.478;23.756;2023-10-31T09:53:31;5.43;;;3.03;;
15194;SDS011;7698;42.478;23.756;2023-10-31T09:55:58;2.72;;;1.92;;
15194;SDS011;7698;42.478;23.756;2023-10-31T09:58:25;3.70;;;2.47;;
15194;SDS011;7698;42.478;23.756;2023-10-31T10:00:51;2.78;;;1.60;;
15194;SDS011;7698;42.478;23.756;2023-10-31T10:03:18;4.65;;;1.63;;
15194;SDS011;7698;42.478;23.756;2023-10-31T10:05:46;2.85;;;2.00;;
15194;SDS011;7698;42.478;23.756;2023-10-31T10:08:14;3.08;;;2.08;;
15194;SDS011;7698;42.478;23.756;2023-10-31T10:10:40;1.98;;;1.40;;
15194;SDS011;7698;42.478;23.756;2023-10-31T10:13:07;3.05;;;1.90;;
15194;SDS011;7698;42.478;23.756;2023-10-31T10:15:43;1.58;;;1.38;;
15194;SDS011;7698;42.478;23.756;2023-10-31T10:18:09;2.03;;;1.77;;
15194;SDS011;7698;42.478;23.756;2023-10-31T10:20:36;4.22;;;2.20;;
15194;SDS011;7698;42.478;23.756;2023-10-31T10:23:04;3.50;;;1.92;;
15194;SDS011;7698;42.478;23.756;2023-10-31T10:25:30;3.70;;;2.05;;
15194;SDS011;7698;42.478;23.756;2023-10-31T10:27:57;3.00;;;2.20;;
15194;SDS011;7698;42.478;23.756;2023-10-31T10:30:23;3.05;;;2.20;;
15194;SDS011;7698;42.478;23.756;2023-10-31T10:32:50;3.00;;;2.30;;
15194;SDS011;7698;42.478;23.756;2023-10-31T10:35:17;2.17;;;1.95;;
15194;SDS011;7698;42.478;23.756;2023-10-31T10:37:44;8.70;;;2.78;;
15194;SDS011;7698;42.478;23.756;2023-10-31T10:40:13;3.35;;;2.25;;
15194;SDS011;7698;42.478;23.756;2023-10-31T10:42:44;3.38;;;1.73;;
15194;SDS011;7698;42.478;23.756;2023-10-31T10:45:10;4.53;;;2.00;;
15194;SDS011;7698;42.478;23.756;2023-10-31T10:47:39;2.10;;;1.88;;
15194;SDS011;7698;42.478;23.756;2023-10-31T10:50:06;2.50;;;2.10;;
15194;SDS011;7698;42.478;23.756;2023-10-31T10:52:35;2.55;;;2.33;;
15194;SDS011;7698;42.478;23.756;2023-10-31T10:55:03;3.53;;;2.15;;
15194;SDS011;7698;42.478;23.756;2023-10-31T10:57:36;3.50;;;2.10;;
15194;SDS011;7698;42.478;23.756;2023-10-31T11:00:04;2.72;;;2.13;;
15194;SDS011;7698;42.478;23.756;2023-10-31T11:02:33;1.55;;;1.45;;
15194;SDS011;7698;42.478;23.756;2023-10-31T11:05:01;3.85;;;2.20;;
15194;SDS011;7698;42.478;23.756;2023-10-31T11:07:28;2.15;;;1.75;;
15194;SDS011;7698;42.478;23.756;2023-10-31T11:09:56;2.10;;;1.60;;
15194;SDS011;7698;42.478;23.756;2023-10-31T11:12:23;3.17;;;2.30;;
15194;SDS011;7698;42.478;23.756;2023-10-31T11:14:52;1.75;;;1.65;;
15194;SDS011;7698;42.478;23.756;2023-10-31T11:17:22;2.13;;;1.90;;
15194;SDS011;7698;42.478;23.756;2023-10-31T11:19:49;2.90;;;1.63;;
15194;SDS011;7698;42.478;23.756;2023-10-31T11:22:17;3.08;;;1.98;;
15194;SDS011;7698;42.478;23.756;2023-10-31T11:24:44;2.95;;;2.15;;
15194;SDS011;7698;42.478;23.756;2023-10-31T11:27:10;3.03;;;2.20;;
15194;SDS011;7698;42.478;23.756;2023-10-31T11:29:37;3.90;;;2.08;;
15194;SDS011;7698;42.478;23.756;2023-10-31T11:32:05;2.58;;;1.77;;
15194;SDS011;7698;42.478;23.756;2023-10-31T11:34:34;2.65;;;2.33;;
15194;SDS011;7698;42.478;23.756;2023-10-31T11:42:38;3.45;;;2.88;;
15194;SDS011;7698;42.478;23.756;2023-10-31T11:45:05;3.15;;;2.30;;
15194;SDS011;7698;42.478;23.756;2023-10-31T11:47:46;3.15;;;2.10;;
15194;SDS011;7698;42.478;23.756;2023-10-31T11:50:12;3.42;;;3.08;;
15194;SDS011;7698;42.478;23.756;2023-10-31T11:52:39;4.88;;;3.13;;
15194;SDS011;7698;42.478;23.756;2023-10-31T11:55:07;4.78;;;2.75;;
15194;SDS011;7698;42.478;23.756;2023-10-31T11:57:34;3.65;;;2.65;;
15194;SDS011;7698;42.478;23.756;2023-10-31T12:00:01;3.60;;;3.22;;
15194;SDS011;7698;42.478;23.756;2023-10-31T12:02:28;4.05;;;3.22;;
15194;SDS011;7698;42.478;23.756;2023-10-31T12:05:07;7.30;;;3.53;;
15194;SDS011;7698;42.478;23.756;2023-10-31T12:07:41;3.25;;;2.85;;
15194;SDS011;7698;42.478;23.756;2023-10-31T12:10:08;5.40;;;3.05;;
15194;SDS011;7698;42.478;23.756;2023-10-31T12:12:34;3.67;;;3.35;;
15194;SDS011;7698;42.478;23.756;2023-10-31T12:15:04;2.58;;;2.25;;
15194;SDS011;7698;42.478;23.756;2023-10-31T12:17:32;2.33;;;2.13;;
15194;SDS011;7698;42.478;23.756;2023-10-31T12:19:58;2.40;;;2.20;;
15194;SDS011;7698;42.478;23.756;2023-10-31T12:22:30;4.18;;;2.00;;
15194;SDS011;7698;42.478;23.756;2023-10-31T12:25:00;24.70;;;3.92;;
15194;SDS011;7698;42.478;23.756;2023-10-31T12:27:41;4.03;;;1.90;;
15194;SDS011;7698;42.478;23.756;2023-10-31T12:30:08;5.03;;;1.60;;
15194;SDS011;7698;42.478;23.756;2023-10-31T12:32:35;4.38;;;2.10;;
15194;SDS011;7698;42.478;23.756;2023-10-31T12:35:02;5.50;;;2.05;;
15194;SDS011;7698;42.478;23.756;2023-10-31T12:37:28;7.75;;;2.20;;
15194;SDS011;7698;42.478;23.756;2023-10-31T12:39:56;5.57;;;1.40;;
15194;SDS011;7698;42.478;23.756;2023-10-31T12:42:27;11.63;;;2.20;;
15194;SDS011;7698;42.478;23.756;2023-10-31T12:44:55;2.38;;;1.48;;
15194;SDS011;7698;42.478;23.756;2023-10-31T12:47:22;7.93;;;1.83;;
15194;SDS011;7698;42.478;23.756;2023-10-31T12:50:02;8.48;;;2.00;;
15194;SDS011;7698;42.478;23.756;2023-10-31T12:52:34;12.32;;;2.13;;
15194;SDS011;7698;42.478;23.756;2023-10-31T12:55:16;9.77;;;1.90;;
15194;SDS011;7698;42.478;23.756;2023-10-31T12:57:43;8.02;;;1.60;;
15194;SDS011;7698;42.478;23.756;2023-10-31T13:00:11;8.68;;;2.15;;
15194;SDS011;7698;42.478;23.756;2023-10-31T13:02:38;4.47;;;1.58;;
15194;SDS011;7698;42.478;23.756;2023-10-31T13:05:09;3.10;;;1.65;;
15194;SDS011;7698;42.478;23.756;2023-10-31T13:07:37;6.88;;;1.95;;
15194;SDS011;7698;42.478;23.756;2023-10-31T13:10:04;2.00;;;1.25;;
15194;SDS011;7698;42.478;23.756;2023-10-31T13:12:32;2.28;;;1.33;;
15194;SDS011;7698;42.478;23.756;2023-10-31T13:14:58;2.70;;;1.77;;
15194;SDS011;7698;42.478;23.756;2023-10-31T13:17:26;3.58;;;1.75;;
15194;SDS011;7698;42.478;23.756;2023-10-31T13:19:52;4.05;;;1.60;;
15194;SDS011;7698;42.478;23.756;2023-10-31T13:22:19;6.75;;;1.88;;
15194;SDS011;7698;42.478;23.756;2023-10-31T13:24:45;30.50;;;4.28;;
15194;SDS011;7698;42.478;23.756;2023-10-31T13:27:12;5.05;;;1.70;;
15194;SDS011;7698;42.478;23.756;2023-10-31T13:29:42;47.08;;;6.18;;
15194;SDS011;7698;42.478;23.756;2023-10-31T13:32:11;38.92;;;4.55;;
15194;SDS011;7698;42.478;23.756;2023-10-31T13:34:37;18.05;;;3.50;;
15194;SDS011;7698;42.478;23.756;2023-10-31T13:37:04;10.60;;;2.50;;
15194;SDS011;7698;42.478;23.756;2023-10-31T13:39:30;33.00;;;5.25;;
15194;SDS011;7698;42.478;23.756;2023-10-31T13:41:57;66.65;;;9.23;;
15194;SDS011;7698;42.478;23.756;2023-10-31T13:44:23;16.92;;;4.10;;
15194;SDS011;7698;42.478;23.756;2023-10-31T13:46:51;4.50;;;2.35;;
15194;SDS011;7698;42.478;23.756;2023-10-31T13:49:18;12.35;;;3.05;;
15194;SDS011;7698;42.478;23.756;2023-10-31T13:51:46;4.03;;;2.22;;
15194;SDS011;7698;42.478;23.756;2023-10-31T13:54:12;15.70;;;3.10;;
15194;SDS011;7698;42.478;23.756;2023-10-31T13:56:39;19.90;;;3.15;;
15194;SDS011;7698;42.478;23.756;2023-10-31T13:59:06;24.10;;;3.92;;
15194;SDS011;7698;42.478;23.756;2023-10-31T14:01:32;5.55;;;2.08;;
15194;SDS011;7698;42.478;23.756;2023-10-31T14:04:00;8.50;;;2.03;;
15194;SDS011;7698;42.478;23.756;2023-10-31T14:06:27;7.43;;;2.28;;
15194;SDS011;7698;42.478;23.756;2023-10-31T14:08:57;11.23;;;2.40;;
15194;SDS011;7698;42.478;23.756;2023-10-31T14:11:24;3.90;;;2.33;;
15194;SDS011;7698;42.478;23.756;2023-10-31T14:13:50;3.53;;;2.08;;
15194;SDS011;7698;42.478;23.756;2023-10-31T14:16:17;6.05;;;2.13;;
15194;SDS011;7698;42.478;23.756;2023-10-31T14:18:44;4.60;;;2.20;;
15194;SDS011;7698;42.478;23.756;2023-10-31T14:21:12;2.60;;;1.60;;
15194;SDS011;7698;42.478;23.756;2023-10-31T14:23:39;2.22;;;1.90;;
15194;SDS011;7698;42.478;23.756;2023-10-31T14:26:05;3.85;;;2.03;;
15194;SDS011;7698;42.478;23.756;2023-10-31T14:28:32;3.00;;;1.90;;
15194;SDS011;7698;42.478;23.756;2023-10-31T14:30:58;3.00;;;2.13;;
15194;SDS011;7698;42.478;23.756;2023-10-31T14:33:25;2.67;;;1.83;;
15194;SDS011;7698;42.478;23.756;2023-10-31T14:35:51;2.70;;;2.17;;
15194;SDS011;7698;42.478;23.756;2023-10-31T14:38:19;5.95;;;2.53;;
15194;SDS011;7698;42.478;23.756;2023-10-31T14:40:47;3.03;;;1.70;;
15194;SDS011;7698;42.478;23.756;2023-10-31T14:43:14;3.30;;;1.65;;
15194;SDS011;7698;42.478;23.756;2023-10-31T14:45:43;5.43;;;2.25;;
15194;SDS011;7698;42.478;23.756;2023-10-31T14:48:10;7.57;;;1.90;;
15194;SDS011;7698;42.478;23.756;2023-10-31T14:50:36;2.53;;;2.15;;